createdAt,value
2022-10-06T00:01:32.203Z,100066.00
2022-10-06T00:05:33.537Z,100069.47
2022-10-06T00:09:34.841Z,100091.22
2022-10-06T00:13:36.743Z,100095.56
2022-10-06T00:17:38.973Z,100099.03
2022-10-06T00:21:40.265Z,100113.78
2022-10-06T00:25:42.299Z,100113.75
2022-10-06T00:29:43.572Z,100124.19
2022-10-06T00:33:45.790Z,100132.84
2022-10-06T00:37:47.043Z,100139.78
2022-10-06T00:41:48.380Z,100157.94
2022-10-06T00:45:49.729Z,100161.28
2022-10-06T00:49:53.556Z,100163.78
2022-10-06T00:53:54.855Z,100178.47
2022-10-06T00:57:56.219Z,100174.88
2022-10-06T01:02:01.553Z,100189.63
2022-10-06T01:06:04.169Z,100203.50
2022-10-06T01:10:05.825Z,100203.50
2022-10-06T01:14:07.635Z,100220.03
2022-10-06T01:18:13.210Z,100224.38
2022-10-06T01:22:16.176Z,100233.09
2022-10-06T01:26:18.472Z,100240.09
2022-10-06T01:30:23.725Z,100238.38
2022-10-06T01:34:25.033Z,100234.06
2022-10-06T01:38:26.646Z,100234.06
2022-10-06T01:42:31.772Z,100230.63
2022-10-06T01:46:33.240Z,100231.47
2022-10-06T01:50:34.513Z,100231.53
2022-10-06T01:54:35.906Z,100229.78
2022-10-06T01:58:37.162Z,100230.69
2022-10-06T02:02:38.585Z,100230.69
2022-10-06T02:06:39.907Z,100236.81
2022-10-06T02:10:41.203Z,100243.78
2022-10-06T02:14:42.601Z,100242.94
2022-10-06T02:18:44.462Z,100248.16
2022-10-06T02:22:45.729Z,100256.94
2022-10-06T02:26:47.022Z,100264.75
2022-10-06T02:30:48.449Z,100261.31
2022-10-06T02:34:50.383Z,100272.63
2022-10-06T02:38:51.637Z,100280.47
2022-10-06T02:42:53.200Z,100291.78
2022-10-06T02:46:54.678Z,100297.00
2022-10-06T02:50:56.034Z,100297.91
2022-10-06T02:54:57.276Z,100310.97
2022-10-06T02:58:58.990Z,100311.84
2022-10-06T03:03:00.262Z,100317.94
2022-10-06T03:07:01.545Z,100320.56
2022-10-06T03:11:03.680Z,100331.00
2022-10-06T03:15:05.383Z,100331.88
2022-10-06T03:19:08.028Z,100338.81
2022-10-06T03:23:13.425Z,100338.81
2022-10-06T03:27:15.514Z,100355.34
2022-10-06T03:31:17.866Z,100367.56
2022-10-06T03:35:19.208Z,100375.38
2022-10-06T03:39:20.693Z,100371.91
2022-10-06T03:43:22.385Z,100381.47
2022-10-06T03:47:23.853Z,100393.66
2022-10-06T03:51:29.708Z,100393.66
2022-10-06T03:55:31.026Z,100401.47
2022-10-06T03:59:34.157Z,100407.56
2022-10-06T04:03:35.748Z,100400.59
2022-10-06T04:07:36.976Z,100411.91
2022-10-06T04:11:39.245Z,100416.25
2022-10-06T04:15:40.472Z,100425.81
2022-10-06T04:19:41.989Z,100436.25
2022-10-06T04:23:43.431Z,100441.47
2022-10-06T04:27:45.099Z,100440.59
2022-10-06T04:31:46.808Z,100446.69
2022-10-06T04:35:48.125Z,100438.00
2022-10-06T04:39:49.387Z,100457.13
2022-10-06T04:43:51.043Z,100453.66
2022-10-06T04:47:52.284Z,100452.78
2022-10-06T04:51:53.632Z,100462.34
2022-10-06T04:56:11.220Z,100472.75
2022-10-06T05:00:25.365Z,100471.00
2022-10-06T05:04:26.676Z,100482.31
2022-10-06T05:08:28.442Z,100486.66
2022-10-06T05:12:30.960Z,100491.88
2022-10-06T05:16:33.000Z,100498.81
2022-10-06T05:20:34.371Z,100500.56
2022-10-06T05:24:35.665Z,100517.91
2022-10-06T05:28:37.341Z,100515.25
2022-10-06T05:32:38.679Z,100523.00
2022-10-06T05:36:40.058Z,100520.38
2022-10-06T05:40:41.443Z,100538.56
2022-10-06T05:44:42.746Z,100550.69
2022-10-06T05:48:50.936Z,100556.69
2022-10-06T05:52:54.197Z,100547.09
2022-10-06T05:56:55.714Z,100550.47
2022-10-06T06:01:06.104Z,100566.06
2022-10-06T06:05:07.445Z,100569.44
2022-10-06T06:09:10.038Z,100579.78
2022-10-06T06:13:11.917Z,100578.84
2022-10-06T06:17:13.148Z,100594.47
2022-10-06T06:21:14.421Z,100597.94
2022-10-06T06:25:15.738Z,100607.44
2022-10-06T06:29:16.998Z,100603.97
2022-10-06T06:33:18.266Z,100604.84
2022-10-06T06:37:19.591Z,100611.91
2022-10-06T06:41:25.781Z,100627.69
2022-10-06T06:45:27.184Z,100633.84
2022-10-06T06:49:28.459Z,100633.97
2022-10-06T06:53:30.094Z,100640.16
2022-10-06T06:57:31.424Z,100641.25
2022-10-06T07:01:32.741Z,100651.91
2022-10-06T07:05:34.069Z,100653.78
2022-10-06T07:09:35.760Z,100654.72
2022-10-06T07:13:37.009Z,100657.44
2022-10-06T07:17:57.238Z,100660.84
2022-10-06T07:22:18.508Z,100666.00
2022-10-06T07:26:19.909Z,100673.69
2022-10-06T07:30:25.541Z,100682.19
2022-10-06T07:34:30.332Z,100689.09
2022-10-06T07:38:32.259Z,100699.59
2022-10-06T07:42:48.145Z,100701.34
2022-10-06T07:46:49.441Z,100702.28
2022-10-06T07:50:52.589Z,100718.00
2022-10-06T07:54:54.065Z,100713.69
2022-10-06T07:58:56.164Z,100718.00
2022-10-06T08:02:57.472Z,100723.25
2022-10-06T08:06:59.724Z,100727.63
2022-10-06T08:11:01.928Z,100725.06
2022-10-06T08:15:07.632Z,100729.13
2022-10-06T08:19:09.288Z,100727.75
2022-10-06T08:23:14.476Z,100732.81
2022-10-06T08:27:15.914Z,100741.56
2022-10-06T08:31:18.677Z,100739.94
2022-10-06T08:35:21.299Z,100753.22
2022-10-06T08:39:22.706Z,100750.75
2022-10-06T08:43:25.973Z,100753.38
2022-10-06T08:47:28.991Z,100755.88
2022-10-06T08:51:44.329Z,100766.34
2022-10-06T08:55:48.013Z,100767.22
2022-10-06T08:59:53.307Z,100782.91
2022-10-06T09:03:57.252Z,100773.91
2022-10-06T09:08:21.769Z,100765.69
2022-10-06T09:12:45.832Z,100782.03
2022-10-06T09:16:50.219Z,100785.38
2022-10-06T09:21:12.009Z,100786.31
2022-10-06T09:25:26.530Z,100783.69
2022-10-06T09:29:31.198Z,100794.31
2022-10-06T09:33:37.232Z,100792.59
2022-10-06T09:37:57.217Z,100784.69
2022-10-06T09:42:00.561Z,100795.25
2022-10-06T09:46:20.929Z,100800.47
2022-10-06T09:50:23.813Z,100802.25
2022-10-06T09:54:25.281Z,100808.47
2022-10-06T09:58:34.483Z,100806.69
2022-10-06T10:02:37.171Z,100799.78
2022-10-06T10:06:40.061Z,100796.19
2022-10-06T10:10:41.460Z,100798.56
2022-10-06T10:14:42.737Z,100805.69
2022-10-06T10:18:48.293Z,100788.75
2022-10-06T10:22:49.890Z,100795.56
2022-10-06T10:27:14.308Z,100779.91
2022-10-06T10:31:20.211Z,100785.13
2022-10-06T10:35:27.572Z,100778.03
2022-10-06T10:39:38.084Z,100787.63
2022-10-06T10:43:40.141Z,100780.56
2022-10-06T10:47:45.440Z,100794.50
2022-10-06T10:51:53.024Z,100786.56
2022-10-06T10:55:54.328Z,100791.72
2022-10-06T11:00:01.469Z,100798.03
2022-10-06T11:04:03.111Z,100794.75
2022-10-06T11:08:13.235Z,100795.63
2022-10-06T11:12:14.438Z,100788.75
2022-10-06T11:16:24.623Z,100788.59
2022-10-06T11:20:37.969Z,100792.81
2022-10-06T11:24:48.308Z,100788.34
2022-10-06T11:28:56.524Z,100794.53
2022-10-06T11:33:07.021Z,100788.41
2022-10-06T11:37:37.642Z,100785.72
2022-10-06T11:41:41.477Z,100785.81
2022-10-06T11:45:45.913Z,100774.44
2022-10-06T11:49:49.383Z,100769.22
2022-10-06T11:53:51.260Z,100772.63
2022-10-06T11:58:08.650Z,100769.97
2022-10-06T12:02:38.066Z,100758.53
2022-10-06T12:06:42.568Z,100759.38
2022-10-06T12:10:48.208Z,100756.59
2022-10-06T12:19:20.860Z,100743.34
2022-10-06T12:23:42.073Z,100745.09
2022-10-06T12:27:52.494Z,100736.38
2022-10-06T12:32:13.043Z,100740.91
2022-10-06T12:36:19.129Z,100730.22
2022-10-06T12:40:42.983Z,100729.22
2022-10-06T12:44:51.632Z,100732.75
2022-10-06T12:49:03.172Z,100720.50
2022-10-06T12:53:11.725Z,100710.06
2022-10-06T12:57:18.555Z,100719.53
2022-10-06T13:01:21.938Z,100714.44
2022-10-06T13:05:23.607Z,100712.63
2022-10-06T13:09:25.038Z,100711.66
2022-10-06T13:13:26.416Z,100709.00
2022-10-06T13:17:27.712Z,100701.16
2022-10-06T13:21:30.139Z,100701.09
2022-10-06T13:25:40.445Z,100703.63
2022-10-06T13:29:41.744Z,100696.75
2022-10-06T13:33:44.233Z,100687.97
2022-10-06T13:37:45.789Z,100689.56
2022-10-06T13:41:52.221Z,100691.34
2022-10-06T13:45:54.321Z,100691.34
2022-10-06T13:50:19.733Z,100682.53
2022-10-06T13:54:46.077Z,100689.44
2022-10-06T13:58:47.878Z,100682.47
2022-10-06T14:02:51.246Z,100682.44
2022-10-06T14:06:54.145Z,100676.38
2022-10-06T14:10:56.899Z,100671.16
2022-10-06T14:14:59.045Z,100677.34
2022-10-06T14:19:03.797Z,100670.34
2022-10-06T14:23:23.829Z,100672.31
2022-10-06T14:27:25.104Z,100672.41
2022-10-06T14:31:28.108Z,100671.53
2022-10-06T14:35:29.474Z,100667.25
2022-10-06T14:39:30.757Z,100661.19
2022-10-06T14:43:32.933Z,100664.66
2022-10-06T14:47:34.321Z,100656.72
2022-10-06T14:51:37.185Z,100662.91
2022-10-06T14:55:38.639Z,100649.72
2022-10-06T14:59:39.981Z,100644.50
2022-10-06T15:03:42.666Z,100648.88
2022-10-06T15:08:05.806Z,100645.47
2022-10-06T15:12:07.081Z,100643.88
2022-10-06T15:16:08.700Z,100635.09
2022-10-06T15:20:12.620Z,100634.06
2022-10-06T15:24:15.881Z,100627.84
2022-10-06T15:28:36.215Z,100623.31
2022-10-06T15:32:37.540Z,100624.00
2022-10-06T15:36:39.697Z,100618.38
2022-10-06T15:40:40.955Z,100612.63
2022-10-06T15:44:42.172Z,100611.41
2022-10-06T15:48:44.649Z,100615.41
2022-10-06T15:52:46.112Z,100610.41
2022-10-06T15:56:48.389Z,100611.03
2022-10-06T16:00:49.801Z,100605.97
2022-10-06T16:05:17.553Z,100612.97
2022-10-06T16:09:18.962Z,100618.31
2022-10-06T16:13:20.360Z,100619.03
2022-10-06T16:17:21.609Z,100622.00
2022-10-06T16:21:23.420Z,100624.00
2022-10-06T16:25:24.647Z,100621.50
2022-10-06T16:29:26.472Z,100615.50
2022-10-06T16:33:27.694Z,100611.22
2022-10-06T16:37:28.973Z,100610.38
2022-10-06T16:41:30.264Z,100614.72
2022-10-06T16:45:31.600Z,100618.16
2022-10-06T16:49:32.832Z,100620.75
2022-10-06T16:53:38.460Z,100620.72
2022-10-06T16:57:39.729Z,100620.69
2022-10-06T17:01:41.368Z,100618.00
2022-10-06T17:05:42.601Z,100628.31
2022-10-06T17:09:55.981Z,100623.00
2022-10-06T17:14:05.723Z,100623.72
2022-10-06T17:18:07.369Z,100638.41
2022-10-06T17:22:08.656Z,100646.97
2022-10-06T17:26:16.668Z,100645.09
2022-10-06T17:30:17.923Z,100644.06
2022-10-06T17:34:21.527Z,100653.47
2022-10-06T17:38:26.421Z,100656.84
2022-10-06T17:42:27.729Z,100661.00
2022-10-06T17:46:32.330Z,100658.25
2022-10-06T17:50:33.747Z,100658.13
2022-10-06T17:54:35.008Z,100657.94
2022-10-06T17:58:37.044Z,100665.59
2022-10-06T18:02:40.436Z,100659.41
2022-10-06T18:06:43.322Z,100660.09
2022-10-06T18:11:06.392Z,100663.34
2022-10-06T18:15:10.021Z,100659.78
2022-10-06T18:19:13.380Z,100665.66
2022-10-06T18:23:15.769Z,100655.97
2022-10-06T18:27:17.140Z,100667.00
2022-10-06T18:31:18.965Z,100666.84
2022-10-06T18:39:44.920Z,100676.16
2022-10-06T18:43:46.417Z,100663.88
2022-10-06T18:48:06.591Z,100663.78
2022-10-06T18:52:08.442Z,100660.88
2022-10-06T18:56:10.735Z,100656.44
2022-10-06T19:00:14.227Z,100657.13
2022-10-06T19:04:17.575Z,100659.59
2022-10-06T19:08:19.854Z,100656.84
2022-10-06T19:12:22.100Z,100664.56
2022-10-06T19:16:23.729Z,100668.75
2022-10-06T19:20:25.166Z,100658.22
2022-10-06T19:24:28.588Z,100661.53
2022-10-06T19:28:31.470Z,100667.50
2022-10-06T19:32:32.966Z,100672.56
2022-10-06T19:36:36.094Z,100665.53
2022-10-06T19:40:37.448Z,100670.56
2022-10-06T19:44:42.933Z,100668.69
2022-10-06T19:48:44.536Z,100669.41
2022-10-06T19:52:45.845Z,100671.75
2022-10-06T19:56:47.387Z,100677.69
2022-10-06T20:00:48.693Z,100673.19
2022-10-06T20:04:50.534Z,100677.34
2022-10-06T20:08:52.452Z,100679.84
2022-10-06T20:12:53.715Z,100681.44
2022-10-06T20:16:55.476Z,100676.19
2022-10-06T20:20:58.620Z,100674.31
2022-10-06T20:25:02.168Z,100673.28
2022-10-06T20:29:05.873Z,100679.13
2022-10-06T20:33:07.461Z,100674.72
2022-10-06T20:37:08.733Z,100666.72
2022-10-06T20:41:10.015Z,100660.41
2022-10-06T20:45:11.260Z,100660.31
2022-10-06T20:49:22.012Z,100661.94
2022-10-06T20:53:26.956Z,100651.44
2022-10-06T20:57:33.508Z,100652.19
2022-10-06T21:01:36.374Z,100652.03
2022-10-06T21:05:37.877Z,100651.75
2022-10-06T21:09:39.125Z,100654.25
2022-10-06T21:13:40.864Z,100649.91
2022-10-06T21:17:46.446Z,100649.78
2022-10-06T21:21:53.221Z,100649.63
2022-10-06T21:25:55.731Z,100642.56
2022-10-06T21:29:57.012Z,100641.50
2022-10-06T21:34:00.308Z,100643.19
2022-10-06T21:38:01.547Z,100636.09
2022-10-06T21:42:03.972Z,100641.84
2022-10-06T21:46:27.447Z,100638.28
2022-10-06T21:50:27.326Z,100633.81
2022-10-06T21:54:28.673Z,100632.81
2022-10-06T21:58:29.889Z,100636.91
2022-10-06T22:02:31.131Z,100635.00
2022-10-06T22:06:33.392Z,100624.63
2022-10-06T22:10:34.644Z,100625.31
2022-10-06T22:14:35.877Z,100623.38
2022-10-06T22:18:38.327Z,100620.72
2022-10-06T22:22:39.539Z,100617.22
2022-10-06T22:26:41.473Z,100615.16
2022-10-06T22:30:42.682Z,100611.72
2022-10-06T22:34:43.931Z,100608.94
2022-10-06T22:38:45.437Z,100609.66
2022-10-06T22:42:46.703Z,100606.84
2022-10-06T22:46:47.989Z,100602.41
2022-10-06T22:50:49.828Z,100601.28
2022-10-06T22:54:51.033Z,100595.09
2022-10-06T22:58:52.312Z,100592.28
2022-10-06T23:02:54.288Z,100590.53
2022-10-06T23:06:55.658Z,100579.94
2022-10-06T23:11:02.965Z,100578.97
2022-10-06T23:15:04.505Z,100569.28
2022-10-06T23:19:05.750Z,100571.72
2022-10-06T23:23:07.768Z,100576.88
2022-10-06T23:27:09.104Z,100573.47
2022-10-06T23:31:10.906Z,100560.47
2022-10-06T23:35:12.240Z,100567.94
2022-10-06T23:39:13.805Z,100560.09
2022-10-06T23:43:15.008Z,100562.63
2022-10-06T23:47:16.234Z,100562.28
2022-10-06T23:51:17.722Z,100557.97
2022-10-06T23:55:18.965Z,100561.16
2022-10-06T23:59:20.980Z,100557.41
